createdAt,value
2023-03-16T00:00:44.626Z,100122.72
2023-03-16T00:02:46.097Z,100124.63
2023-03-16T00:04:47.619Z,100125.59
2023-03-16T00:06:49.007Z,100125.44
2023-03-16T00:08:50.457Z,100126.28
2023-03-16T00:10:54.046Z,100118.63
2023-03-16T00:12:56.657Z,100120.53
2023-03-16T00:14:58.031Z,100113.69
2023-03-16T00:16:59.381Z,100114.69
2023-03-16T00:19:03.085Z,100115.63
2023-03-16T00:21:05.869Z,100116.75
2023-03-16T00:23:07.450Z,100122.91
2023-03-16T00:25:14.350Z,100117.53
2023-03-16T00:27:16.014Z,100120.44
2023-03-16T00:29:17.468Z,100122.38
2023-03-16T00:31:19.109Z,100118.41
2023-03-16T00:33:20.810Z,100117.59
2023-03-16T00:35:22.186Z,100106.66
2023-03-16T00:37:25.605Z,100110.22
2023-03-16T00:39:27.051Z,100098.06
2023-03-16T00:41:28.449Z,100100.53
2023-03-16T00:43:31.418Z,100099.69
2023-03-16T00:45:33.076Z,100104.50
2023-03-16T00:47:35.018Z,100108.19
2023-03-16T00:49:36.657Z,100102.19
2023-03-16T00:51:38.070Z,100105.72
2023-03-16T00:53:41.543Z,100096.63
2023-03-16T00:55:43.042Z,100100.00
2023-03-16T00:57:44.857Z,100097.56
2023-03-16T00:59:46.667Z,100097.56
2023-03-16T01:01:48.332Z,100094.97
2023-03-16T01:03:49.714Z,100094.97
2023-03-16T01:05:51.145Z,100096.75
2023-03-16T01:07:52.544Z,100100.69
2023-03-16T01:09:53.941Z,100102.47
2023-03-16T01:11:55.381Z,100109.31
2023-03-16T01:13:56.934Z,100108.31
2023-03-16T01:15:59.736Z,100115.16
2023-03-16T01:18:01.862Z,100111.63
2023-03-16T01:20:08.059Z,100108.19
2023-03-16T01:22:10.485Z,100111.47
2023-03-16T01:24:11.911Z,100111.34
2023-03-16T01:26:15.133Z,100112.81
2023-03-16T01:28:16.527Z,100099.13
2023-03-16T01:30:17.917Z,100090.38
2023-03-16T01:32:19.396Z,100086.41
2023-03-16T01:34:20.844Z,100091.78
2023-03-16T01:36:22.235Z,100092.31
2023-03-16T01:38:24.385Z,100078.03
2023-03-16T01:40:25.970Z,100076.56
2023-03-16T01:42:27.787Z,100071.06
2023-03-16T01:44:32.556Z,100070.13
2023-03-16T01:46:34.415Z,100066.56
2023-03-16T01:48:39.101Z,100056.00
2023-03-16T01:50:42.192Z,100061.06
2023-03-16T01:52:43.673Z,100053.66
2023-03-16T01:55:13.000Z,100052.16
2023-03-16T01:57:30.373Z,100048.75
2023-03-16T01:59:57.800Z,100048.59
2023-03-16T02:02:00.318Z,100047.78
2023-03-16T02:04:33.840Z,100048.59
2023-03-16T02:06:36.967Z,100055.97
2023-03-16T02:08:40.493Z,100049.66
2023-03-16T02:10:43.131Z,100038.31
2023-03-16T02:12:44.965Z,100032.41
2023-03-16T02:14:48.412Z,100028.34
2023-03-16T02:16:50.617Z,100021.50
2023-03-16T02:18:52.065Z,100023.44
2023-03-16T02:21:02.659Z,100021.66
2023-03-16T02:23:07.242Z,100018.38
2023-03-16T02:25:10.435Z,100009.94
2023-03-16T02:27:39.780Z,100005.69
2023-03-16T02:30:02.349Z,100008.50
2023-03-16T02:32:05.499Z,100008.81
2023-03-16T02:34:09.434Z,100000.34
2023-03-16T02:36:12.771Z,100002.13
2023-03-16T02:38:14.252Z,99999.84
2023-03-16T02:40:28.677Z,99992.69
2023-03-16T02:42:30.243Z,100000.19
2023-03-16T02:44:36.375Z,99996.25
2023-03-16T02:46:38.898Z,99994.63
2023-03-16T02:48:48.006Z,99996.25
2023-03-16T02:50:53.265Z,99996.25
2023-03-16T02:52:54.664Z,99991.34
2023-03-16T02:54:56.041Z,99983.41
2023-03-16T02:56:57.671Z,99984.66
2023-03-16T02:58:59.081Z,99987.09
2023-03-16T03:01:01.346Z,99980.59
2023-03-16T03:03:03.420Z,99990.69
2023-03-16T03:05:05.369Z,99987.09
2023-03-16T03:07:06.809Z,99975.91
2023-03-16T03:09:08.799Z,99982.59
2023-03-16T03:11:10.254Z,99983.56
2023-03-16T03:13:13.441Z,99981.19
2023-03-16T03:15:16.597Z,99980.53
2023-03-16T03:17:17.993Z,99980.34
2023-03-16T03:19:19.390Z,99973.38
2023-03-16T03:21:21.702Z,99971.19
2023-03-16T03:23:23.591Z,99974.94
2023-03-16T03:25:25.089Z,99971.91
2023-03-16T03:27:26.493Z,99972.59
2023-03-16T03:29:34.490Z,99968.28
2023-03-16T03:31:35.968Z,99961.81
2023-03-16T03:33:37.330Z,99959.91
2023-03-16T03:35:38.813Z,99961.22
2023-03-16T03:37:41.051Z,99947.63
2023-03-16T03:39:42.656Z,99952.66
2023-03-16T03:41:44.053Z,99952.34
2023-03-16T03:43:45.443Z,99946.50
2023-03-16T03:45:47.267Z,99956.03
2023-03-16T03:47:48.664Z,99949.81
2023-03-16T03:49:50.038Z,99949.00
2023-03-16T03:51:51.485Z,99949.81
2023-03-16T03:53:52.878Z,99951.97
2023-03-16T03:55:54.414Z,99945.34
2023-03-16T03:57:55.788Z,99945.06
2023-03-16T03:59:57.217Z,99938.88
2023-03-16T04:01:58.795Z,99945.72
2023-03-16T04:04:00.592Z,99949.00
2023-03-16T04:06:02.119Z,99945.78
2023-03-16T04:08:04.227Z,99944.97
2023-03-16T04:10:07.558Z,99943.19
2023-03-16T04:12:13.718Z,99941.22
2023-03-16T04:14:15.105Z,99938.31
2023-03-16T04:16:17.178Z,99942.94
2023-03-16T04:18:18.588Z,99935.97
2023-03-16T04:20:20.748Z,99939.19
2023-03-16T04:22:23.247Z,99940.53
2023-03-16T04:24:24.668Z,99930.94
2023-03-16T04:26:26.067Z,99936.34
2023-03-16T04:28:27.630Z,99923.47
2023-03-16T04:30:30.959Z,99921.53
2023-03-16T04:32:33.605Z,99923.56
2023-03-16T04:34:35.092Z,99925.06
2023-03-16T04:36:36.484Z,99929.13
2023-03-16T04:38:37.892Z,99922.50
2023-03-16T04:40:39.308Z,99923.31
2023-03-16T04:42:40.703Z,99911.91
2023-03-16T04:44:44.344Z,99918.41
2023-03-16T04:46:45.848Z,99914.38
2023-03-16T04:48:47.217Z,99918.16
2023-03-16T04:50:48.745Z,99911.16
2023-03-16T04:52:50.112Z,99905.78
2023-03-16T04:54:51.822Z,99902.34
2023-03-16T04:56:53.220Z,99897.19
2023-03-16T04:58:56.877Z,99891.97
2023-03-16T05:00:58.436Z,99902.53
2023-03-16T05:02:59.846Z,99886.44
2023-03-16T05:05:01.582Z,99890.03
2023-03-16T05:07:03.188Z,99897.69
2023-03-16T05:09:06.024Z,99894.09
2023-03-16T05:11:07.830Z,99885.16
2023-03-16T05:13:09.291Z,99887.09
2023-03-16T05:15:11.524Z,99884.81
2023-03-16T05:17:14.821Z,99886.78
2023-03-16T05:19:16.339Z,99885.00
2023-03-16T05:21:17.717Z,99890.38
2023-03-16T05:23:20.326Z,99884.66
2023-03-16T05:25:21.902Z,99884.19
2023-03-16T05:27:23.257Z,99876.06
2023-03-16T05:29:26.426Z,99872.97
2023-03-16T05:31:28.812Z,99876.91
2023-03-16T05:33:30.365Z,99877.06
2023-03-16T05:35:32.398Z,99878.84
2023-03-16T05:37:38.009Z,99883.91
2023-03-16T05:39:39.409Z,99873.63
2023-03-16T05:41:41.224Z,99885.03
2023-03-16T05:43:43.569Z,99884.88
2023-03-16T05:45:45.001Z,99882.09
2023-03-16T05:47:46.407Z,99876.72
2023-03-16T05:49:47.825Z,99879.00
2023-03-16T05:51:50.668Z,99881.63
2023-03-16T05:53:56.632Z,99891.25
2023-03-16T05:55:58.158Z,99885.22
2023-03-16T05:57:59.617Z,99880.34
2023-03-16T06:00:11.252Z,99881.13
2023-03-16T06:02:12.684Z,99887.50
2023-03-16T06:04:14.340Z,99887.78
2023-03-16T06:06:16.999Z,99903.13
2023-03-16T06:08:18.405Z,99896.44
2023-03-16T06:10:20.154Z,99897.75
2023-03-16T06:12:21.549Z,99900.34
2023-03-16T06:14:23.878Z,99897.41
2023-03-16T06:16:25.924Z,99906.38
2023-03-16T06:18:27.604Z,99904.75
2023-03-16T06:20:29.431Z,99902.28
2023-03-16T06:22:31.225Z,99899.34
2023-03-16T06:24:32.599Z,99894.75
2023-03-16T06:26:33.983Z,99895.22
2023-03-16T06:28:35.391Z,99893.91
2023-03-16T06:30:36.803Z,99896.53
2023-03-16T06:32:38.850Z,99898.16
2023-03-16T06:34:41.612Z,99900.09
2023-03-16T06:36:43.084Z,99901.38
2023-03-16T06:38:44.896Z,99903.31
2023-03-16T06:40:46.428Z,99904.59
2023-03-16T06:42:48.264Z,99899.03
2023-03-16T06:44:49.798Z,99890.88
2023-03-16T06:46:51.238Z,99884.16
2023-03-16T06:48:52.622Z,99884.00
2023-03-16T06:50:54.173Z,99888.69
2023-03-16T06:52:55.794Z,99889.94
2023-03-16T06:54:58.492Z,99888.31
2023-03-16T06:56:59.994Z,99894.00
2023-03-16T06:59:01.698Z,99892.88
2023-03-16T07:01:04.145Z,99895.63
2023-03-16T07:03:05.719Z,99901.59
2023-03-16T07:05:07.975Z,99891.91
2023-03-16T07:07:09.867Z,99897.09
2023-03-16T07:09:12.461Z,99901.63
2023-03-16T07:11:14.830Z,99901.75
2023-03-16T07:13:16.243Z,99901.38
2023-03-16T07:15:17.782Z,99899.22
2023-03-16T07:17:19.229Z,99897.13
2023-03-16T07:19:20.667Z,99900.97
2023-03-16T07:21:22.144Z,99895.88
2023-03-16T07:23:24.809Z,99896.97
2023-03-16T07:25:26.202Z,99892.84
2023-03-16T07:27:28.762Z,99895.22
2023-03-16T07:29:30.199Z,99903.53
2023-03-16T07:31:32.536Z,99897.13
2023-03-16T07:33:34.747Z,99902.81
2023-03-16T07:35:36.204Z,99909.50
2023-03-16T07:37:37.907Z,99902.28
2023-03-16T07:39:40.023Z,99902.59
2023-03-16T07:41:41.674Z,99903.03
2023-03-16T07:43:44.355Z,99900.88
2023-03-16T07:45:52.302Z,99903.75
2023-03-16T07:47:53.689Z,99898.97
2023-03-16T07:49:55.095Z,99913.81
2023-03-16T07:51:56.521Z,99915.00
2023-03-16T07:53:57.903Z,99913.81
2023-03-16T07:55:59.285Z,99912.75
2023-03-16T07:58:01.555Z,99907.84
2023-03-16T08:00:05.237Z,99906.84
2023-03-16T08:02:07.091Z,99891.91
2023-03-16T08:04:12.326Z,99894.66
2023-03-16T08:06:13.751Z,99903.34
2023-03-16T08:08:15.953Z,99905.91
2023-03-16T08:10:18.243Z,99910.25
2023-03-16T08:12:19.657Z,99899.88
2023-03-16T08:14:21.243Z,99899.38
2023-03-16T08:16:24.389Z,99892.81
2023-03-16T08:18:26.705Z,99895.16
2023-03-16T08:20:29.720Z,99879.63
2023-03-16T08:22:31.276Z,99888.78
2023-03-16T08:24:33.251Z,99872.84
2023-03-16T08:26:34.818Z,99872.88
2023-03-16T08:28:36.369Z,99876.13
2023-03-16T08:30:38.009Z,99868.53
2023-03-16T08:32:40.976Z,99871.56
2023-03-16T08:34:42.526Z,99874.44
2023-03-16T08:36:44.228Z,99878.72
2023-03-16T08:39:03.897Z,99868.13
2023-03-16T08:41:08.406Z,99871.63
2023-03-16T08:43:09.790Z,99872.91
2023-03-16T08:45:14.219Z,99868.94
2023-03-16T08:47:16.097Z,99874.41
2023-03-16T08:49:17.483Z,99872.59
2023-03-16T08:51:19.609Z,99883.53
2023-03-16T08:53:21.494Z,99878.06
2023-03-16T08:55:24.423Z,99872.25
2023-03-16T08:57:26.220Z,99873.50
2023-03-16T08:59:30.475Z,99876.75
2023-03-16T09:01:32.011Z,99881.44
2023-03-16T09:03:34.793Z,99872.72
2023-03-16T09:05:36.176Z,99873.22
2023-03-16T09:07:39.229Z,99870.41
2023-03-16T09:09:40.735Z,99868.38
2023-03-16T09:11:42.121Z,99879.31
2023-03-16T09:13:44.785Z,99882.34
2023-03-16T09:15:46.179Z,99883.34
2023-03-16T09:17:47.733Z,99884.97
2023-03-16T09:19:51.774Z,99883.94
2023-03-16T09:21:53.727Z,99886.72
2023-03-16T09:23:56.237Z,99879.81
2023-03-16T09:25:59.599Z,99871.50
2023-03-16T09:28:01.030Z,99881.22
2023-03-16T09:30:05.280Z,99886.47
2023-03-16T09:32:07.710Z,99887.91
2023-03-16T09:34:09.379Z,99883.22
2023-03-16T09:36:14.195Z,99887.69
2023-03-16T09:38:15.830Z,99887.91
2023-03-16T09:40:23.270Z,99890.16
2023-03-16T09:42:37.470Z,99891.72
2023-03-16T09:45:26.758Z,99891.78
2023-03-16T09:47:30.760Z,99892.63
2023-03-16T09:49:43.300Z,99896.00
2023-03-16T09:52:15.725Z,99880.66
2023-03-16T09:54:27.601Z,99892.63
2023-03-16T09:56:35.286Z,99885.75
2023-03-16T09:58:36.969Z,99889.03
2023-03-16T10:00:45.352Z,99876.72
2023-03-16T10:03:30.029Z,99877.13
2023-03-16T10:05:32.838Z,99872.47
2023-03-16T10:08:00.571Z,99874.28
2023-03-16T10:10:14.833Z,99867.44
2023-03-16T10:12:17.122Z,99868.16
2023-03-16T10:14:41.391Z,99874.47
2023-03-16T10:17:08.220Z,99875.06
2023-03-16T10:19:25.608Z,99880.06
2023-03-16T10:21:27.894Z,99877.03
2023-03-16T10:23:34.344Z,99874.94
2023-03-16T10:25:50.048Z,99871.09
2023-03-16T10:27:52.931Z,99876.16
2023-03-16T10:29:55.055Z,99872.28
2023-03-16T10:32:02.355Z,99862.03
2023-03-16T10:34:06.132Z,99860.88
2023-03-16T10:36:15.771Z,99861.59
2023-03-16T10:38:55.197Z,99852.50
2023-03-16T10:40:59.790Z,99858.81
2023-03-16T10:43:12.829Z,99853.34
2023-03-16T10:45:32.139Z,99843.34
2023-03-16T10:47:34.254Z,99855.06
2023-03-16T10:49:42.321Z,99855.31
2023-03-16T10:51:43.902Z,99859.78
2023-03-16T10:53:45.401Z,99851.28
2023-03-16T10:55:47.937Z,99847.00
2023-03-16T10:57:53.594Z,99858.50
2023-03-16T10:59:59.582Z,99852.78
2023-03-16T11:02:16.656Z,99849.44
2023-03-16T11:04:19.688Z,99845.56
2023-03-16T11:06:25.801Z,99839.91
2023-03-16T11:08:32.189Z,99841.59
2023-03-16T11:10:46.130Z,99836.31
2023-03-16T11:12:56.935Z,99830.78
2023-03-16T11:15:25.320Z,99832.47
2023-03-16T11:17:49.893Z,99816.66
2023-03-16T11:19:57.716Z,99824.72
2023-03-16T11:22:13.114Z,99814.50
2023-03-16T11:25:11.769Z,99803.88
2023-03-16T11:27:23.734Z,99806.88
2023-03-16T11:29:35.517Z,99797.13
2023-03-16T11:31:57.298Z,99796.31
2023-03-16T11:33:58.770Z,99794.16
2023-03-16T11:36:08.864Z,99791.44
2023-03-16T11:38:18.809Z,99798.94
2023-03-16T11:40:53.855Z,99793.31
2023-03-16T11:43:01.149Z,99775.88
2023-03-16T11:45:05.465Z,99772.63
2023-03-16T11:47:27.817Z,99764.38
2023-03-16T11:49:50.623Z,99757.09
2023-03-16T11:52:17.272Z,99761.78
2023-03-16T11:54:24.971Z,99762.88
2023-03-16T11:56:34.791Z,99764.34
2023-03-16T11:58:56.205Z,99758.19
2023-03-16T12:01:22.769Z,99762.53
2023-03-16T12:03:59.018Z,99764.84
2023-03-16T12:06:39.008Z,99751.16
2023-03-16T12:08:55.754Z,99748.75
2023-03-16T12:11:02.693Z,99740.84
2023-03-16T12:13:12.858Z,99729.16
2023-03-16T12:15:24.339Z,99740.50
2023-03-16T12:17:31.115Z,99733.81
2023-03-16T12:19:44.724Z,99731.41
2023-03-16T12:21:49.263Z,99729.81
2023-03-16T12:23:53.484Z,99716.03
2023-03-16T12:25:59.130Z,99710.72
2023-03-16T12:28:05.615Z,99694.94
2023-03-16T12:30:35.800Z,99690.44
2023-03-16T12:32:49.399Z,99688.19
2023-03-16T12:35:02.867Z,99676.31
2023-03-16T12:37:19.685Z,99687.72
2023-03-16T12:39:32.617Z,99682.78
2023-03-16T12:41:59.154Z,99671.91
2023-03-16T12:44:04.148Z,99665.25
2023-03-16T12:46:18.485Z,99661.50
2023-03-16T12:48:29.824Z,99656.44
2023-03-16T12:50:31.764Z,99635.94
2023-03-16T12:52:42.092Z,99643.19
2023-03-16T12:54:54.821Z,99639.88
2023-03-16T12:57:06.958Z,99641.00
2023-03-16T12:59:16.882Z,99643.28
2023-03-16T13:01:24.944Z,99641.00
2023-03-16T13:03:28.412Z,99640.44
2023-03-16T13:05:36.276Z,99637.75
2023-03-16T13:07:46.434Z,99626.34
2023-03-16T13:09:52.779Z,99628.59
2023-03-16T13:11:54.309Z,99623.75
2023-03-16T13:14:01.865Z,99611.03
2023-03-16T13:16:10.954Z,99605.94
2023-03-16T13:18:15.095Z,99613.09
2023-03-16T13:20:35.022Z,99612.31
2023-03-16T13:22:50.826Z,99605.59
2023-03-16T13:25:14.270Z,99597.69
2023-03-16T13:27:44.514Z,99601.81
2023-03-16T13:29:56.621Z,99596.50
2023-03-16T13:32:01.724Z,99598.97
2023-03-16T13:34:06.697Z,99585.50
2023-03-16T13:36:10.357Z,99597.34
2023-03-16T13:38:16.476Z,99582.69
2023-03-16T13:40:24.565Z,99591.03
2023-03-16T13:42:30.003Z,99582.09
2023-03-16T13:44:32.080Z,99591.03
2023-03-16T13:46:33.689Z,99588.50
2023-03-16T13:48:37.188Z,99575.81
2023-03-16T13:50:41.254Z,99566.97
2023-03-16T13:52:44.181Z,99559.56
2023-03-16T13:54:45.607Z,99572.59
2023-03-16T13:56:47.355Z,99559.88
2023-03-16T13:58:51.724Z,99553.97
2023-03-16T14:00:58.691Z,99545.91
2023-03-16T14:03:09.191Z,99537.78
2023-03-16T14:05:33.334Z,99535.13
2023-03-16T14:07:38.460Z,99534.16
2023-03-16T14:09:40.007Z,99520.81
2023-03-16T14:11:42.806Z,99526.38
2023-03-16T14:13:52.804Z,99526.38
2023-03-16T14:15:56.440Z,99532.84
2023-03-16T14:18:21.196Z,99529.16
2023-03-16T14:20:25.898Z,99511.31
2023-03-16T14:22:39.581Z,99507.66
2023-03-16T14:24:41.596Z,99508.16
2023-03-16T14:26:45.961Z,99503.47
2023-03-16T14:29:01.898Z,99487.16
2023-03-16T14:31:10.010Z,99484.09
2023-03-16T14:33:28.613Z,99481.38
2023-03-16T14:35:32.445Z,99481.22
2023-03-16T14:37:35.722Z,99475.63
2023-03-16T14:39:38.263Z,99479.28
2023-03-16T14:41:40.044Z,99481.47
2023-03-16T14:44:17.371Z,99471.13
2023-03-16T14:46:30.404Z,99465.00
2023-03-16T14:48:32.684Z,99468.28
2023-03-16T14:50:34.780Z,99467.91
2023-03-16T14:52:36.514Z,99469.53
2023-03-16T14:54:37.902Z,99460.47
2023-03-16T14:56:39.274Z,99462.63
2023-03-16T14:58:41.219Z,99454.44
2023-03-16T15:00:52.644Z,99448.16
2023-03-16T15:03:06.448Z,99444.91
2023-03-16T15:05:09.526Z,99438.19
2023-03-16T15:07:29.585Z,99433.44
2023-03-16T15:09:36.463Z,99432.94
2023-03-16T15:11:38.350Z,99423.97
2023-03-16T15:13:39.755Z,99416.59
2023-03-16T15:15:42.499Z,99410.22
2023-03-16T15:17:44.439Z,99409.81
2023-03-16T15:19:45.904Z,99403.56
2023-03-16T15:21:47.291Z,99403.00
2023-03-16T15:23:49.017Z,99398.16
2023-03-16T15:25:52.708Z,99393.19
2023-03-16T15:27:54.656Z,99396.97
2023-03-16T15:29:56.609Z,99399.69
2023-03-16T15:31:58.023Z,99401.56
2023-03-16T15:33:59.404Z,99391.72
2023-03-16T15:36:06.983Z,99396.44
2023-03-16T15:38:33.371Z,99390.53
2023-03-16T15:40:35.788Z,99395.38
2023-03-16T15:42:37.177Z,99382.25
2023-03-16T15:44:38.793Z,99378.00
2023-03-16T15:46:40.223Z,99382.22
2023-03-16T15:48:41.747Z,99383.28
2023-03-16T15:50:51.026Z,99385.97
2023-03-16T15:52:59.915Z,99396.50
2023-03-16T15:55:07.604Z,99394.56
2023-03-16T15:57:10.659Z,99392.34
2023-03-16T15:59:17.027Z,99388.19
2023-03-16T16:01:26.243Z,99383.31
2023-03-16T16:03:27.734Z,99381.00
2023-03-16T16:05:30.855Z,99367.28
2023-03-16T16:07:32.258Z,99361.78
2023-03-16T16:09:37.621Z,99359.16
2023-03-16T16:11:41.156Z,99357.94
2023-03-16T16:13:45.178Z,99368.03
2023-03-16T16:15:47.163Z,99364.41
2023-03-16T16:18:13.271Z,99373.44
2023-03-16T16:20:27.365Z,99359.84
2023-03-16T16:22:28.864Z,99364.72
2023-03-16T16:24:30.274Z,99361.25
2023-03-16T16:26:49.835Z,99357.78
2023-03-16T16:28:53.003Z,99364.50
2023-03-16T16:30:55.842Z,99351.94
2023-03-16T16:32:58.908Z,99356.84
2023-03-16T16:35:04.582Z,99350.69
2023-03-16T16:37:06.500Z,99349.28
2023-03-16T16:39:07.998Z,99354.28
2023-03-16T16:41:10.416Z,99342.31
2023-03-16T16:43:24.419Z,99342.53
2023-03-16T16:45:26.099Z,99345.91
2023-03-16T16:47:27.489Z,99343.88
2023-03-16T16:49:30.938Z,99342.47
2023-03-16T16:51:33.159Z,99344.78
2023-03-16T16:53:35.380Z,99343.44
2023-03-16T16:55:37.269Z,99349.66
2023-03-16T16:57:39.133Z,99356.53
2023-03-16T16:59:41.851Z,99362.94
2023-03-16T17:01:43.310Z,99362.47
2023-03-16T17:03:44.800Z,99366.78
2023-03-16T17:05:46.224Z,99365.69
2023-03-16T17:07:48.169Z,99366.19
2023-03-16T17:09:50.761Z,99361.03
2023-03-16T17:11:54.085Z,99361.00
2023-03-16T17:13:58.245Z,99359.69
2023-03-16T17:16:00.130Z,99360.94
2023-03-16T17:18:05.015Z,99364.16
2023-03-16T17:20:15.299Z,99360.28
2023-03-16T17:22:25.111Z,99368.25
2023-03-16T17:24:26.791Z,99369.44
2023-03-16T17:26:31.591Z,99368.56
2023-03-16T17:28:38.682Z,99359.91
2023-03-16T17:30:40.209Z,99361.31
2023-03-16T17:32:41.675Z,99358.44
2023-03-16T17:34:43.494Z,99355.88
2023-03-16T17:36:46.753Z,99362.59
2023-03-16T17:38:48.314Z,99363.50
2023-03-16T17:40:51.686Z,99357.19
2023-03-16T17:42:55.895Z,99362.63
2023-03-16T17:44:58.041Z,99369.13
2023-03-16T17:46:59.509Z,99369.03
2023-03-16T17:49:01.933Z,99363.44
2023-03-16T17:51:03.515Z,99362.59
2023-03-16T17:53:04.870Z,99361.72
2023-03-16T17:55:06.891Z,99363.34
2023-03-16T17:57:17.807Z,99372.81
2023-03-16T17:59:21.130Z,99362.84
2023-03-16T18:01:33.418Z,99366.22
2023-03-16T18:03:36.047Z,99362.13
2023-03-16T18:05:38.099Z,99370.47
2023-03-16T18:07:39.789Z,99378.53
2023-03-16T18:09:44.893Z,99377.47
2023-03-16T18:11:49.926Z,99377.72
2023-03-16T18:13:51.869Z,99374.19
2023-03-16T18:15:55.807Z,99376.59
2023-03-16T18:17:58.382Z,99377.81
2023-03-16T18:20:00.323Z,99370.97
2023-03-16T18:22:01.706Z,99372.03
2023-03-16T18:24:03.191Z,99373.31
2023-03-16T18:26:06.259Z,99372.53
2023-03-16T18:28:09.756Z,99372.97
2023-03-16T18:30:11.579Z,99374.22
2023-03-16T18:32:21.571Z,99383.97
2023-03-16T18:34:27.722Z,99375.88
2023-03-16T18:36:32.584Z,99384.28
2023-03-16T18:38:36.939Z,99385.28
2023-03-16T18:40:38.611Z,99385.03
2023-03-16T18:42:40.003Z,99380.31
2023-03-16T18:44:41.393Z,99386.31
2023-03-16T18:46:44.569Z,99381.63
2023-03-16T18:48:45.966Z,99388.84
2023-03-16T18:50:47.975Z,99387.59
2023-03-16T18:52:50.332Z,99382.38
2023-03-16T18:54:53.038Z,99370.59
2023-03-16T18:56:54.762Z,99373.91
2023-03-16T18:58:56.642Z,99376.53
2023-03-16T19:01:01.689Z,99378.75
2023-03-16T19:03:03.667Z,99377.16
2023-03-16T19:05:11.095Z,99377.63
2023-03-16T19:07:24.505Z,99373.63
2023-03-16T19:09:28.891Z,99372.00
2023-03-16T19:11:30.353Z,99370.16
2023-03-16T19:13:31.737Z,99373.59
2023-03-16T19:15:35.986Z,99370.97
2023-03-16T19:17:37.446Z,99370.00
2023-03-16T19:19:38.918Z,99368.41
2023-03-16T19:21:41.257Z,99370.44
2023-03-16T19:23:43.966Z,99366.84
2023-03-16T19:25:45.981Z,99366.84
2023-03-16T19:27:48.136Z,99368.84
2023-03-16T19:29:52.233Z,99371.50
2023-03-16T19:31:56.392Z,99361.56
2023-03-16T19:33:58.460Z,99359.81
2023-03-16T19:36:00.159Z,99372.34
2023-03-16T19:38:01.787Z,99370.72
2023-03-16T19:40:05.158Z,99372.41
2023-03-16T19:42:15.055Z,99357.44
2023-03-16T19:44:19.926Z,99366.78
2023-03-16T19:46:28.941Z,99364.50
2023-03-16T19:48:34.214Z,99355.97
2023-03-16T19:50:35.936Z,99350.56
2023-03-16T19:52:37.315Z,99357.88
2023-03-16T19:54:40.340Z,99361.31
2023-03-16T19:56:42.389Z,99346.75
2023-03-16T19:58:47.362Z,99350.59
2023-03-16T20:00:49.823Z,99345.72
2023-03-16T20:02:55.155Z,99344.69
2023-03-16T20:04:57.237Z,99353.59
2023-03-16T20:06:58.808Z,99354.16
2023-03-16T20:09:00.180Z,99356.22
2023-03-16T20:11:08.579Z,99355.75
2023-03-16T20:13:10.855Z,99357.75
2023-03-16T20:15:22.160Z,99361.63
2023-03-16T20:17:26.138Z,99358.00
2023-03-16T20:19:28.490Z,99347.31
2023-03-16T20:21:29.892Z,99351.91
2023-03-16T20:23:31.728Z,99355.69
2023-03-16T20:25:34.603Z,99344.59
2023-03-16T20:27:36.524Z,99341.53
2023-03-16T20:29:38.242Z,99346.84
2023-03-16T20:31:39.772Z,99341.78
2023-03-16T20:33:41.412Z,99333.88
2023-03-16T20:35:42.802Z,99332.50
2023-03-16T20:37:44.817Z,99325.19
2023-03-16T20:39:46.268Z,99334.13
2023-03-16T20:41:47.984Z,99323.38
2023-03-16T20:43:49.397Z,99323.59
2023-03-16T20:45:52.721Z,99316.97
2023-03-16T20:47:54.766Z,99306.25
2023-03-16T20:49:59.136Z,99307.06
2023-03-16T20:52:00.868Z,99303.94
2023-03-16T20:54:02.423Z,99298.50
2023-03-16T20:56:04.237Z,99297.44
2023-03-16T20:58:18.098Z,99298.06
2023-03-16T21:00:26.493Z,99291.28
2023-03-16T21:02:35.649Z,99299.97
2023-03-16T21:04:37.142Z,99293.09
2023-03-16T21:06:38.637Z,99282.00
2023-03-16T21:08:40.015Z,99294.56
2023-03-16T21:10:46.166Z,99290.28
2023-03-16T21:12:51.949Z,99283.53
2023-03-16T21:14:53.881Z,99277.34
2023-03-16T21:16:55.592Z,99279.22
2023-03-16T21:18:57.017Z,99272.53
2023-03-16T21:20:58.962Z,99272.91
2023-03-16T21:23:00.901Z,99280.19
2023-03-16T21:25:02.456Z,99264.22
2023-03-16T21:27:03.984Z,99272.91
2023-03-16T21:29:10.852Z,99269.03
2023-03-16T21:31:19.555Z,99269.56
2023-03-16T21:33:40.150Z,99256.69
2023-03-16T21:35:41.807Z,99245.50
2023-03-16T21:37:43.752Z,99248.16
2023-03-16T21:39:46.538Z,99249.34
2023-03-16T21:41:50.485Z,99243.56
2023-03-16T21:43:52.286Z,99247.94
2023-03-16T21:45:55.063Z,99247.13
2023-03-16T21:47:56.799Z,99247.81
2023-03-16T21:49:59.253Z,99248.47
2023-03-16T21:52:02.246Z,99245.41
2023-03-16T21:54:04.044Z,99241.94
2023-03-16T21:56:06.541Z,99237.78
2023-03-16T21:58:09.380Z,99236.53
2023-03-16T22:00:35.368Z,99220.72
2023-03-16T22:02:37.663Z,99219.75
2023-03-16T22:04:39.182Z,99219.94
2023-03-16T22:06:42.398Z,99220.19
2023-03-16T22:08:43.992Z,99218.56
2023-03-16T22:10:45.801Z,99220.38
2023-03-16T22:12:47.201Z,99214.91
2023-03-16T22:14:48.712Z,99214.13
2023-03-16T22:16:50.377Z,99214.53
2023-03-16T22:18:56.283Z,99215.56
2023-03-16T22:20:59.115Z,99210.28
2023-03-16T22:23:01.302Z,99212.50
2023-03-16T22:25:02.775Z,99201.41
2023-03-16T22:27:04.386Z,99196.72
2023-03-16T22:29:25.214Z,99197.09
2023-03-16T22:31:33.533Z,99193.28
2023-03-16T22:33:37.553Z,99191.63
2023-03-16T22:35:39.501Z,99191.03
2023-03-16T22:37:41.283Z,99186.63
2023-03-16T22:39:42.898Z,99187.22
2023-03-16T22:41:44.296Z,99191.69
2023-03-16T22:43:45.836Z,99181.38
2023-03-16T22:45:48.645Z,99189.84
2023-03-16T22:47:51.153Z,99189.25
2023-03-16T22:49:53.617Z,99186.25
2023-03-16T22:51:57.447Z,99190.06
2023-03-16T22:54:02.505Z,99191.72
2023-03-16T22:56:05.389Z,99185.38
2023-03-16T22:58:33.555Z,99188.03
2023-03-16T23:00:35.343Z,99185.63
2023-03-16T23:02:37.390Z,99177.72
2023-03-16T23:04:38.951Z,99172.69
2023-03-16T23:06:40.957Z,99169.72
2023-03-16T23:08:42.438Z,99170.72
2023-03-16T23:10:44.998Z,99161.16
2023-03-16T23:14:47.976Z,99148.59
2023-03-16T23:16:51.919Z,99149.00
2023-03-16T23:18:53.900Z,99153.47
2023-03-16T23:20:55.831Z,99162.41
2023-03-16T23:22:57.405Z,99167.66
2023-03-16T23:24:58.915Z,99161.84
2023-03-16T23:27:01.171Z,99173.59
2023-03-16T23:29:02.610Z,99165.72
2023-03-16T23:31:04.169Z,99160.06
2023-03-16T23:33:05.689Z,99168.53
2023-03-16T23:35:16.697Z,99164.13
2023-03-16T23:37:18.052Z,99166.47
2023-03-16T23:39:19.633Z,99161.41
2023-03-16T23:41:23.442Z,99161.41
2023-03-16T23:43:24.904Z,99166.22
2023-03-16T23:45:44.976Z,99170.53
2023-03-16T23:47:48.710Z,99165.03
2023-03-16T23:49:50.166Z,99176.75
2023-03-16T23:51:52.783Z,99169.91
2023-03-16T23:53:54.986Z,99163.22
2023-03-16T23:55:56.795Z,99152.13
2023-03-16T23:57:58.237Z,99155.34
2023-03-16T23:59:59.619Z,99154.31
